KSTK/STK METAR and TAF weather

Enter ICAO airport designator
Station Type Date Time Source
KSTK METAR 2022/06/28 14:55 UTC NOAA

KSTK 281455Z AUTO 16003KT 10SM CLR 23/10 A3023 RMK AO2


Station Type Date Time Source
KSTK Decoded METAR 2022/06/28 14:55 UTC NOAA

Station name not available
Jun 28, 2022 - 10:55 AM EDT / 2022.06.28 1455 UTC
Wind: from the SSE (160 degrees) at 3 MPH (3 KT):0
Visibility: 10 mile(s):0
Sky conditions: clear
Temperature: 73 F (23 C)
Dew Point: 50 F (10 C)
Relative Humidity: 43%
Pressure (altimeter): 30.23 in. Hg (1023 hPa)
ob: KSTK 281455Z AUTO 16003KT 10SM CLR 23/10 A3023 RMK AO2
cycle: 15

Station Type Date Time Source
KSTK TAF UTC NOAA

Error!

Example: see airport list